LTFC

Süleyman Demirel International Airport

Airport
ICAO code
LTFC
IATA Code
ISE
Summary
ICAO Region
EUR
ICAO Territory
Location

, Isparta

Serving
Isparta
Elevation
2835 ft
Coordinates
37° 51' 19" N , 30° 22' 6" E
Metar
LTFC 201520Z 26014KT 9999 FEW027CB BKN035 13/06 Q1008

Runways

Designator Length Width Surface Rops
5/23 3000 45 CON No/No

Airport map

Aerial View

SKYbrary Partners:

Safety knowledge contributed by: